Pagrindinis puslapis
METAR-TAF:

METAR-TAF

Oro uostai :

Bagdadas, Irakas

platuma: 33-15-45N, ilguma: 44-14-04E, Aukštis: 35 m

Dabartinis oras

Ataskaita buvo paskelbta 23 minutes, ne 22:00 UTC
Vėjas 1 kt nuo kintamojo kryptimis
Temperatūra 27°C
Drėgmė 39%
Slėgis 1005 hPa
Matomumas: 9000 m

METAR: ORBI 202200Z VRB01KT 9000 NSC 27/12 Q1005 NOSIG

Laikas: 01:23 (22:23 UTC)

Prognozė

Ataskaita buvo paskelbta 5 valandos ir 23 minutes, ne 17:00 UTC
Prognozė galioja nuo 20 metu 18 UTC su 21 metu 18 UTC
Vėjas 3 kt nuo kintamojo kryptimis
Matomumas 10 km arba daugiau
nėra debesų žemiau 1500 m ir nėra kamuolinių lietaus debesų

TAF: ORBI 201700Z 2018/2118 VRB03KT CAVOK

Orai ataskaitas ir orų prognozės (METAR, TAF).

turimą stotys yra geltonos ir raudonos taškus žemėlapyje.

Perkelti pele per norėdami pamatyti stoties vardą.

Tada spustelėkite, norėdami matyti oro stebėjimo ir prognozės.

Norėdami pakeisti žemėlapį: spustelėkite ant žalios mygtukų su juodo kryžiaus žemyn,; žalią mygtuką su brūkšneliu, jei norite nutolinti; arba žalių rodyklių gretimoms žemėlapius.


METAR-TAF: